Latest Weather Observations for Mount Crawford

IDS60901

Issued at 11:41 pm CST Friday 14 August 2020 (issued every 10 minutes, with the page automatically refreshed every 10 minutes)

About weather observations | Map of Adelaide area stations | Latest observations for Adelaide area | Other Formats
Station Details ID: 023878 Name: MOUNT CRAWFORD AWS Lat: -34.73 Lon: 138.93 Height: 525.0 m
Data from the previous 72 hours. | See also: Recent months at Mount Crawford
Date/Time
CST
Temp
°C
App
Temp
°C
Dew
Point
°C
Rel
Hum
%
Delta-T
°C
Wind Press
QNH
hPa
Press
MSL
hPa
Rain since
9am
mm
Dir  Spd
km/h
Gust
km/h
Spd
kts
Gust
kts
14/11:30pm 8.9 4.5 8.9 100 0.0 WNW 22 30 12 16 1012.3 1012.5 0.6
14/11:00pm 8.9 4.9 8.9 100 0.0 W 20 28 11 15 1012.5 1012.8 0.6
14/10:30pm 8.9 4.1 8.9 100 0.0 WNW 24 30 13 16 1012.5 1012.8 0.6
14/10:00pm 9.1 5.7 9.1 100 0.0 W 17 24 9 13 1012.6 1012.9 0.4
14/09:30pm 8.9 5.4 8.9 100 0.0 W 17 24 9 13 1012.8 1013.1 0.4
14/09:00pm 9.0 5.2 9.0 100 0.0 W 19 24 10 13 1012.5 1012.8 0.4
14/08:30pm 9.1 5.3 9.1 100 0.0 WNW 19 24 10 13 1012.3 1012.5 0.4
14/08:00pm 9.0 5.2 9.0 100 0.0 WNW 19 22 10 12 1012.0 1012.2 0.4
14/07:30pm 9.1 5.7 9.1 100 0.0 W 17 22 9 12 1011.8 1012.0 0.4
14/07:00pm 9.3 5.9 9.3 100 0.0 W 17 20 9 11 1011.6 1011.8 0.4
14/06:30pm 9.5 5.8 9.5 100 0.0 W 19 24 10 13 1011.4 1011.6 0.4
14/06:00pm 9.6 5.7 9.6 100 0.0 W 20 30 11 16 1010.9 1011.2 0.4
14/05:30pm 10.0 6.4 10.0 100 0.0 W 19 28 10 15 1010.7 1010.9 0.4
14/05:00pm 10.7 6.7 10.5 99 0.1 W 22 30 12 16 1010.3 1010.5 0.4
14/04:30pm 10.6 6.2 10.3 98 0.2 W 24 32 13 17 1010.0 1010.2 0.4
14/04:00pm 10.7 6.4 10.7 100 0.0 WNW 24 33 13 18 1009.8 1010.0 0.4
14/03:30pm 11.5 7.8 11.5 100 0.0 WNW 22 32 12 17 1009.6 1009.8 0.4
14/03:00pm 10.1 6.4 10.1 100 0.0 WNW 20 26 11 14 1009.7 1009.9 0.2
14/02:30pm 11.0 7.2 11.0 100 0.0 WNW 22 32 12 17 1009.8 1010.0 0.0
14/02:00pm 10.8 6.8 10.5 98 0.2 WNW 22 33 12 18 1009.5 1009.7 0.0
14/01:30pm 10.5 6.1 10.3 99 0.1 WNW 24 35 13 19 1009.5 1009.7 0.0
14/01:00pm 10.4 6.8 10.4 100 0.0 WNW 20 33 11 18 1009.7 1009.9 0.0
14/12:30pm 10.9 7.0 10.9 100 0.0 NW 22 32 12 17 1010.0 1010.2 0.0
14/12:00pm 9.7 5.1 9.7 100 0.0 WNW 24 32 13 17 1010.3 1010.5 0.0
14/11:30am 9.5 5.2 9.5 100 0.0 WNW 22 32 12 17 1010.5 1010.7 0.0
14/11:00am 9.5 4.9 9.5 100 0.0 WNW 24 35 13 19 1010.5 1010.7 0.0
14/10:30am 8.9 4.1 8.9 100 0.0 NW 24 33 13 18 1010.7 1010.9 0.0
14/10:00am 8.9 4.5 8.9 100 0.0 WNW 22 28 12 15 1010.5 1010.7 0.0
14/09:30am 8.6 4.7 8.6 100 0.0 NW 19 35 10 19 1010.6 1010.8 0.0
14/09:00am 8.3 1.8 8.3 100 0.0 WNW 32 39 17 21 1009.9 1010.1 3.8
14/08:30am 8.2 2.5 8.2 100 0.0 WNW 28 37 15 20 1010.0 1010.2 3.8
14/08:00am 8.0 3.4 8.0 100 0.0 WNW 22 30 12 16 1010.2 1010.4 3.8
14/07:30am 7.8 3.7 7.8 100 0.0 WNW 19 24 10 13 1010.1 1010.3 3.4
14/07:00am 7.8 4.1 7.8 100 0.0 NW 17 22 9 12 1010.0 1010.2 3.2
14/06:30am 7.8 4.1 7.8 100 0.0 NW 17 26 9 14 1009.7 1009.9 3.0
14/06:00am 7.7 3.6 7.7 100 0.0 NW 19 24 10 13 1009.4 1009.6 3.0
14/05:30am 7.7 3.6 7.7 100 0.0 NW 19 28 10 15 1009.1 1009.2 3.0
14/05:00am 7.8 3.5 7.8 100 0.0 NW 20 26 11 14 1008.9 1009.1 3.0
14/04:30am 7.9 3.6 7.9 100 0.0 NW 20 26 11 14 1008.9 1009.1 3.0
14/04:00am 7.9 3.6 7.9 100 0.0 NW 20 28 11 15 1008.9 1009.1 3.0
14/03:30am 7.9 3.8 7.9 100 0.0 NW 19 26 10 14 1009.1 1009.2 3.0
14/03:00am 8.0 3.9 8.0 100 0.0 NW 19 26 10 14 1009.2 1009.4 2.6
14/02:30am 8.1 4.1 8.1 100 0.0 NNW 19 24 10 13 1009.4 1009.6 2.6
14/02:00am 8.2 4.2 8.2 100 0.0 NW 19 24 10 13 1009.6 1009.8 2.6
14/01:30am 8.1 4.4 8.1 100 0.0 NW 17 24 9 13 1009.7 1009.9 2.6
14/01:00am 8.2 4.2 8.2 100 0.0 NW 19 26 10 14 1009.9 1010.1 2.6
14/12:30am 8.5 4.6 8.5 100 0.0 NW 19 28 10 15 1010.1 1010.3 2.6
14/12:00am 8.6 5.1 8.6 100 0.0 NW 17 24 9 13 1010.3 1010.5 2.6
 
Date/Time
CST
Temp
°C
App
Temp
°C
Dew
Point
°C
Rel
Hum
%
Delta-T
°C
Wind Press
QNH
hPa
Press
MSL
hPa
Rain since
9am
mm
Dir  Spd
km/h
Gust
km/h
Spd
kts
Gust
kts
13/11:30pm 8.9 4.9 8.9 100 0.0 NW 20 28 11 15 1010.5 1010.7 2.6
13/11:00pm 9.0 5.2 9.0 100 0.0 NW 19 24 10 13 1010.5 1010.7 2.6
13/10:30pm 9.1 5.3 9.1 100 0.0 NW 19 28 10 15 1010.7 1010.9 2.6
13/10:00pm 9.2 5.2 9.2 100 0.0 NW 20 26 11 14 1010.8 1011.1 2.6
13/09:30pm 9.2 5.2 9.2 100 0.0 NNW 20 28 11 15 1010.9 1011.2 2.6
13/09:00pm 9.3 5.6 9.3 100 0.0 NNW 19 32 10 17 1010.8 1011.1 2.6
13/08:30pm 9.2 5.4 9.2 100 0.0 NNW 19 28 10 15 1010.7 1010.9 2.6
13/08:00pm 9.3 5.6 9.3 100 0.0 NNW 19 28 10 15 1010.5 1010.7 2.6
13/07:30pm 9.2 5.2 9.2 100 0.0 NW 20 30 11 16 1010.3 1010.5 2.6
13/07:00pm 8.9 4.9 8.9 100 0.0 NW 20 28 11 15 1010.1 1010.3 2.6
13/06:30pm 9.3 5.4 9.3 100 0.0 NNW 20 28 11 15 1009.8 1010.0 2.6
13/06:00pm 10.1 6.4 10.1 100 0.0 WNW 20 28 11 15 1009.3 1009.5 2.6
13/05:30pm 9.9 5.4 9.9 100 0.0 WNW 24 30 13 16 1008.6 1008.8 2.6
13/05:00pm 9.7 4.7 9.7 100 0.0 WNW 26 41 14 22 1008.3 1008.5 2.6
13/04:47pm 9.1 3.1 8.6 97 0.3 WNW 30 65 16 35 1008.3 1008.5 2.6
13/04:45pm 9.0 3.8 8.9 99 0.1 WNW 26 65 14 35 1008.2 1008.4 1.8
13/04:30pm 11.8 8.0 11.2 96 0.3 WNW 22 32 12 17 1008.3 1008.5 0.2
13/04:00pm 11.8 7.6 11.0 95 0.4 WNW 24 37 13 20 1008.2 1008.4 0.2
13/03:34pm 12.6 7.6 10.8 89 1.0 WNW 28 46 15 25 1008.0 1008.2 0.2
13/03:30pm 13.1 8.3 11.5 90 0.9 WNW 28 43 15 23 1008.0 1008.2 0.2
13/03:00pm 12.3 6.9 12.3 100 0.0 WNW 32 46 17 25 1008.1 1008.3 0.2
13/02:31pm 12.3 7.7 12.3 100 0.0 WNW 28 46 15 25 1008.3 1008.5 0.2
13/02:30pm 12.3 7.3 12.3 100 0.0 WNW 30 46 16 25 1008.3 1008.5 0.2
13/02:11pm 12.1 7.1 12.1 100 0.0 NW 30 48 16 26 1008.3 1008.5 0.2
13/02:00pm 12.8 8.4 12.8 100 0.0 NW 28 39 15 21 1008.2 1008.4 0.2
13/01:32pm 10.6 5.5 10.6 100 0.0 NW 28 46 15 25 1008.4 1008.6 0.0
13/01:30pm 10.8 5.8 10.8 100 0.0 NW 28 43 15 23 1008.5 1008.7 0.0
13/01:00pm 10.2 5.0 10.2 100 0.0 NW 28 43 15 23 1008.7 1008.9 0.0
13/12:30pm 9.9 5.7 9.9 100 0.0 NW 22 33 12 18 1009.2 1009.4 0.0
13/12:00pm 9.8 4.5 9.8 100 0.0 NW 28 41 15 22 1009.6 1009.8 0.0
13/11:30am 9.7 4.7 9.7 100 0.0 NW 26 39 14 21 1009.6 1009.8 0.0
13/11:00am 9.5 4.9 9.5 100 0.0 WNW 24 39 13 21 1009.8 1010.0 0.0
13/10:30am 9.3 4.2 9.3 100 0.0 NW 26 41 14 22 1009.9 1010.1 0.0
13/10:00am 9.0 4.6 9.0 100 0.0 NW 22 33 12 18 1010.0 1010.2 0.0
13/09:30am 8.9 4.1 8.9 100 0.0 NW 24 37 13 20 1009.9 1010.1 0.0
13/09:00am 8.9 4.1 8.9 100 0.0 NW 24 33 13 18 1009.7 1009.9 7.6
13/08:30am 8.7 4.2 8.7 100 0.0 NW 22 37 12 20 1009.5 1009.7 7.6
13/08:00am 8.5 3.6 8.5 100 0.0 WNW 24 39 13 21 1009.2 1009.4 7.6
13/07:30am 8.5 2.8 8.5 100 0.0 WNW 28 43 15 23 1008.8 1009.0 7.6
13/07:00am 8.4 2.7 8.4 100 0.0 NW 28 46 15 25 1008.5 1008.7 7.4
13/06:30am 8.4 2.7 8.4 100 0.0 WNW 28 39 15 21 1008.2 1008.4 7.4
13/06:00am 8.2 2.1 8.2 100 0.0 WNW 30 41 16 22 1008.0 1008.2 7.4
13/05:30am 8.3 2.2 8.3 100 0.0 WNW 30 43 16 23 1007.8 1008.0 7.4
13/05:00am 8.3 1.6 8.3 100 0.0 WNW 33 44 18 24 1007.5 1007.6 7.4
13/04:41am 8.4 2.0 8.4 100 0.0 WNW 32 50 17 27 1007.6 1007.8 7.2
13/04:30am 8.5 1.9 8.5 100 0.0 WNW 33 50 18 27 1007.5 1007.6 7.2
13/04:26am 8.5 2.1 8.5 100 0.0 WNW 32 50 17 27 1007.5 1007.6 7.2
13/04:00am 8.6 2.6 8.6 100 0.0 WNW 30 41 16 22 1007.3 1007.4 7.2
13/03:30am 8.7 2.3 8.7 100 0.0 WNW 32 44 17 24 1007.2 1007.3 7.2
13/03:00am 8.8 2.5 8.8 100 0.0 WNW 32 46 17 25 1007.3 1007.4 7.2
13/02:41am 8.9 2.4 8.9 100 0.0 WNW 33 52 18 28 1007.4 1007.5 7.2
13/02:30am 8.9 2.6 8.9 100 0.0 WNW 32 44 17 24 1007.5 1007.6 7.2
13/02:00am 9.0 3.1 9.0 100 0.0 WNW 30 41 16 22 1007.7 1007.9 7.2
13/01:30am 9.2 3.3 9.2 100 0.0 NW 30 41 16 22 1007.9 1008.1 7.2
13/01:11am 9.3 3.1 9.3 100 0.0 NW 32 50 17 27 1007.9 1008.1 7.2
13/01:00am 9.4 3.6 9.4 100 0.0 NW 30 46 16 25 1007.8 1008.0 7.2
13/12:30am 9.5 4.1 9.5 100 0.0 WNW 28 39 15 21 1007.9 1008.1 7.2
13/12:00am 9.5 3.3 9.5 100 0.0 WNW 32 46 17 25 1008.0 1008.2 7.2
 
Date/Time
CST
Temp
°C
App
Temp
°C
Dew
Point
°C
Rel
Hum
%
Delta-T
°C
Wind Press
QNH
hPa
Press
MSL
hPa
Rain since
9am
mm
Dir  Spd
km/h
Gust
km/h
Spd
kts
Gust
kts
12/11:30pm 9.6 3.5 9.6 100 0.0 WNW 32 44 17 24 1008.0 1008.2 7.2
12/11:10pm 9.8 4.1 9.8 100 0.0 WNW 30 48 16 26 1007.9 1008.1 7.2
12/11:00pm 9.9 3.8 9.9 100 0.0 WNW 32 44 17 24 1007.9 1008.1 7.2
12/10:30pm 10.0 5.1 10.0 100 0.0 NW 26 39 14 21 1008.1 1008.3 7.2
12/10:00pm 10.0 4.7 10.0 100 0.0 WNW 28 37 15 20 1008.2 1008.4 7.2
12/09:30pm 9.9 4.6 9.9 100 0.0 WNW 28 43 15 23 1008.1 1008.3 7.0
12/09:00pm 9.9 4.6 9.9 100 0.0 WNW 28 37 15 20 1008.1 1008.3 6.8
12/08:30pm 10.0 5.5 10.0 100 0.0 NW 24 32 13 17 1007.9 1008.1 5.8
12/08:00pm 10.1 5.2 10.1 100 0.0 WNW 26 35 14 19 1007.6 1007.8 5.8
12/07:30pm 10.3 5.1 10.3 100 0.0 WNW 28 41 15 22 1007.2 1007.3 5.8
12/07:00pm 10.3 5.5 10.3 100 0.0 WNW 26 39 14 21 1006.7 1006.9 5.8
12/06:30pm 10.3 5.9 10.3 100 0.0 WNW 24 37 13 20 1006.4 1006.6 5.8
12/06:00pm 10.4 5.6 10.4 100 0.0 WNW 26 39 14 21 1006.1 1006.3 5.8
12/05:30pm 10.7 6.0 10.7 100 0.0 WNW 26 37 14 20 1005.8 1005.9 5.8
12/05:00pm 10.9 6.6 10.9 100 0.0 WNW 24 33 13 18 1005.6 1005.7 5.8
12/04:30pm 11.0 6.0 11.0 100 0.0 WNW 28 39 15 21 1005.5 1005.6 5.8
12/04:00pm 11.0 5.6 11.0 100 0.0 WNW 30 43 16 23 1005.2 1005.3 5.8
12/03:30pm 11.2 5.5 11.2 100 0.0 W 32 50 17 27 1004.7 1004.9 5.4
12/03:00pm 11.9 6.4 11.9 100 0.0 WNW 32 50 17 27 1004.5 1004.7 5.4
12/02:59pm 12.0 6.5 12.0 100 0.0 WNW 32 50 17 27 1004.7 1004.9 5.4
12/02:30pm 11.1 5.4 11.1 100 0.0 WNW 32 46 17 25 1004.6 1004.8 5.4
12/02:27pm 10.9 5.9 10.9 100 0.0 WNW 28 46 15 25 1004.6 1004.8 5.4
12/02:00pm 10.8 5.4 10.8 100 0.0 NW 30 44 16 24 1004.6 1004.8 5.4
12/01:45pm 10.8 5.4 10.8 100 0.0 WNW 30 48 16 26 1004.4 1004.6 5.4
12/01:30pm 10.8 5.0 10.8 100 0.0 WNW 32 46 17 25 1004.5 1004.7 5.4
12/01:03pm 10.3 4.7 10.3 100 0.0 WNW 30 48 16 26 1004.7 1004.9 3.8
12/01:00pm 10.3 4.7 10.3 100 0.0 WNW 30 43 16 23 1004.7 1004.9 3.8
12/12:54pm 10.3 5.1 10.3 100 0.0 WNW 28 46 15 25 1004.8 1005.0 3.8
12/12:30pm 10.2 5.4 10.2 100 0.0 NW 26 35 14 19 1005.2 1005.3 3.8
12/12:00pm 10.0 4.4 10.0 100 0.0 NW 30 44 16 24 1005.4 1005.5 3.8
12/11:41am 9.8 4.1 9.8 100 0.0 NW 30 48 16 26 1005.6 1005.7 3.8
12/11:30am 9.9 5.0 9.9 100 0.0 NW 26 37 14 20 1005.7 1005.8 3.6
12/11:00am 9.7 5.1 9.7 100 0.0 NW 24 39 13 21 1005.9 1006.0 3.2
12/10:30am 9.6 4.6 9.6 100 0.0 NW 26 41 14 22 1006.1 1006.3 3.2
12/10:17am 9.5 4.1 9.5 100 0.0 NW 28 46 15 25 1006.1 1006.3 2.6
12/10:00am 9.3 5.4 9.3 100 0.0 NW 20 30 11 16 1006.1 1006.3 0.2
12/09:30am 8.9 4.9 8.9 100 0.0 NNW 20 28 11 15 1006.1 1006.3 0.0
12/09:00am 8.7 3.9 8.7 100 0.0 NNW 24 33 13 18 1006.1 1006.3 9.8
12/08:30am 8.6 4.1 8.6 100 0.0 NNW 22 32 12 17 1006.0 1006.2 9.8
12/08:00am 8.4 3.5 8.4 100 0.0 NNW 24 35 13 19 1005.9 1006.0 9.8
12/07:30am 8.5 3.6 8.5 100 0.0 NNW 24 35 13 19 1005.7 1005.8 9.8
12/07:00am 8.5 4.4 8.5 100 0.0 NNW 20 30 11 16 1005.5 1005.6 9.8
12/06:30am 8.5 4.4 8.5 100 0.0 NNW 20 30 11 16 1005.5 1005.6 9.8
12/06:00am 8.6 4.1 8.6 100 0.0 NNW 22 32 12 17 1005.5 1005.6 9.8
12/05:30am 8.6 4.1 8.6 100 0.0 NNW 22 32 12 17 1005.5 1005.6 9.8
12/05:00am 8.6 4.1 8.6 100 0.0 NNW 22 32 12 17 1005.4 1005.5 9.8
12/04:30am 8.4 4.4 8.4 100 0.0 NNW 19 30 10 16 1005.5 1005.6 9.8
12/04:00am 8.2 3.2 8.2 100 0.0 NNW 24 30 13 16 1005.8 1005.9 9.6
12/03:30am 8.2 3.6 8.2 100 0.0 NNW 22 33 12 18 1006.0 1006.2 9.0
12/03:00am 8.5 4.0 8.5 100 0.0 NNW 22 33 12 18 1006.2 1006.4 8.8
12/02:30am 8.5 3.2 8.4 99 0.0 NNW 26 35 14 19 1006.5 1006.7 8.8
12/02:00am 8.7 3.2 7.5 92 0.6 NNW 26 39 14 21 1007.0 1007.1 8.8
12/01:30am 9.0 3.0 7.0 87 1.0 NNW 28 39 15 21 1007.2 1007.3 8.8
12/01:00am 9.5 3.8 6.8 83 1.3 NNW 26 43 14 23 1007.1 1007.2 8.8
12/12:30am 9.1 4.5 6.7 85 1.2 N 20 32 11 17 1006.7 1006.9 8.8
12/12:00am 9.0 4.4 6.6 85 1.2 N 20 30 11 16 1006.8 1007.0 8.8

Latest Capital City Observations: Canberra | Sydney | Melbourne | Brisbane | Adelaide | Perth | Hobart | Darwin

Other formats

Comma delimited format used in spreadsheet applications
http://www.bom.gov.au/fwo/IDS60901/IDS60901.94678.axf

JavaScript Object Notation format (JSON) in row-major order
http://www.bom.gov.au/fwo/IDS60901/IDS60901.94678.json

Data quality

Most of these data are generated automatically and are frequently updated. Quality checks on data are not normally performed. It is possible for incorrect values to appear. Refer to information at About Latest Weather Observations and please check the disclaimer before using these data.